sensor_id;sensor_type;location;lat;lon;timestamp;noise_LAeq;noise_LA_min;noise_LA_max;noise_LA01;noise_LA95
59284;Laerm;45056;47.602;9.886;2022-08-19T00:00:01;43.85;40.62;54.70;;
59284;Laerm;45056;47.602;9.886;2022-08-19T00:02:31;43.24;38.95;53.71;;
59284;Laerm;45056;47.602;9.886;2022-08-19T00:04:59;42.55;38.95;51.69;;
59284;Laerm;45056;47.602;9.886;2022-08-19T00:07:27;42.60;39.34;49.78;;
59284;Laerm;45056;47.602;9.886;2022-08-19T00:09:56;42.91;40.71;50.15;;
59284;Laerm;45056;47.602;9.886;2022-08-19T00:12:24;43.08;40.98;49.06;;
59284;Laerm;45056;47.602;9.886;2022-08-19T00:14:52;42.68;40.80;43.94;;
59284;Laerm;45056;47.602;9.886;2022-08-19T00:17:21;43.23;41.14;54.43;;
59284;Laerm;45056;47.602;9.886;2022-08-19T00:19:50;43.28;40.80;54.97;;
59284;Laerm;45056;47.602;9.886;2022-08-19T00:22:18;43.98;40.89;56.64;;
59284;Laerm;45056;47.602;9.886;2022-08-19T00:24:46;43.08;41.22;50.04;;
59284;Laerm;45056;47.602;9.886;2022-08-19T00:27:14;42.64;41.03;46.95;;
59284;Laerm;45056;47.602;9.886;2022-08-19T00:29:43;42.76;41.06;53.85;;
59284;Laerm;45056;47.602;9.886;2022-08-19T00:32:11;44.80;41.14;57.88;;
59284;Laerm;45056;47.602;9.886;2022-08-19T00:34:39;43.86;41.61;58.20;;
59284;Laerm;45056;47.602;9.886;2022-08-19T00:37:09;44.50;42.82;55.80;;
59284;Laerm;45056;47.602;9.886;2022-08-19T00:39:37;43.81;42.09;54.88;;
59284;Laerm;45056;47.602;9.886;2022-08-19T00:42:05;43.20;41.61;54.91;;
59284;Laerm;45056;47.602;9.886;2022-08-19T00:44:33;46.14;42.16;68.15;;
59284;Laerm;45056;47.602;9.886;2022-08-19T00:47:03;44.41;41.61;56.22;;
59284;Laerm;45056;47.602;9.886;2022-08-19T00:49:37;45.79;41.89;63.51;;
59284;Laerm;45056;47.602;9.886;2022-08-19T00:52:15;44.00;41.82;54.78;;
59284;Laerm;45056;47.602;9.886;2022-08-19T00:54:46;43.24;41.53;47.34;;
59284;Laerm;45056;47.602;9.886;2022-08-19T00:57:22;43.74;41.61;53.13;;
59284;Laerm;45056;47.602;9.886;2022-08-19T00:59:58;44.67;41.82;57.38;;
59284;Laerm;45056;47.602;9.886;2022-08-19T01:02:28;44.47;41.53;57.17;;
59284;Laerm;45056;47.602;9.886;2022-08-19T01:04:59;43.04;41.53;45.99;;
59284;Laerm;45056;47.602;9.886;2022-08-19T01:07:29;43.02;40.98;56.00;;
59284;Laerm;45056;47.602;9.886;2022-08-19T01:09:57;44.56;40.98;57.81;;
59284;Laerm;45056;47.602;9.886;2022-08-19T01:12:25;42.92;41.38;53.59;;
59284;Laerm;45056;47.602;9.886;2022-08-19T01:14:55;42.89;41.30;44.19;;
59284;Laerm;45056;47.602;9.886;2022-08-19T01:17:23;43.22;41.46;53.77;;
59284;Laerm;45056;47.602;9.886;2022-08-19T01:19:52;42.96;41.53;46.59;;
59284;Laerm;45056;47.602;9.886;2022-08-19T01:22:30;42.93;41.46;45.14;;
59284;Laerm;45056;47.602;9.886;2022-08-19T01:25:00;43.00;41.38;45.91;;
59284;Laerm;45056;47.602;9.886;2022-08-19T01:27:38;42.98;41.53;44.87;;
59284;Laerm;45056;47.602;9.886;2022-08-19T01:30:09;43.91;41.61;56.70;;
59284;Laerm;45056;47.602;9.886;2022-08-19T01:32:37;43.05;41.61;46.71;;
59284;Laerm;45056;47.602;9.886;2022-08-19T01:35:07;44.15;41.61;56.67;;
59284;Laerm;45056;47.602;9.886;2022-08-19T01:37:45;48.37;41.82;64.64;;
59284;Laerm;45056;47.602;9.886;2022-08-19T01:40:14;43.15;41.68;46.20;;
59284;Laerm;45056;47.602;9.886;2022-08-19T01:42:43;43.32;41.61;44.94;;
59284;Laerm;45056;47.602;9.886;2022-08-19T01:45:11;43.86;41.53;55.78;;
59284;Laerm;45056;47.602;9.886;2022-08-19T01:47:40;43.43;41.61;60.61;;
59284;Laerm;45056;47.602;9.886;2022-08-19T01:50:10;43.31;41.53;48.90;;
59284;Laerm;45056;47.602;9.886;2022-08-19T01:52:43;43.09;41.46;45.17;;
59284;Laerm;45056;47.602;9.886;2022-08-19T01:55:17;43.40;41.46;51.35;;
59284;Laerm;45056;47.602;9.886;2022-08-19T01:57:52;43.17;41.53;44.76;;
59284;Laerm;45056;47.602;9.886;2022-08-19T02:00:26;44.90;41.53;56.22;;
59284;Laerm;45056;47.602;9.886;2022-08-19T02:02:55;43.46;41.53;53.69;;
59284;Laerm;45056;47.602;9.886;2022-08-19T02:05:24;43.12;41.61;44.51;;
59284;Laerm;45056;47.602;9.886;2022-08-19T02:07:53;43.36;41.68;50.21;;
59284;Laerm;45056;47.602;9.886;2022-08-19T02:10:23;43.10;41.22;46.52;;
59284;Laerm;45056;47.602;9.886;2022-08-19T02:12:52;43.26;41.75;47.79;;
59284;Laerm;45056;47.602;9.886;2022-08-19T02:15:21;43.40;41.68;53.16;;
59284;Laerm;45056;47.602;9.886;2022-08-19T02:17:49;43.90;41.61;55.33;;
59284;Laerm;45056;47.602;9.886;2022-08-19T02:20:17;45.10;41.89;58.04;;
59284;Laerm;45056;47.602;9.886;2022-08-19T02:22:45;45.17;41.61;60.64;;
59284;Laerm;45056;47.602;9.886;2022-08-19T02:25:15;44.70;41.61;57.73;;
59284;Laerm;45056;47.602;9.886;2022-08-19T02:27:43;43.37;41.96;46.13;;
59284;Laerm;45056;47.602;9.886;2022-08-19T02:30:15;44.33;42.16;55.02;;
59284;Laerm;45056;47.602;9.886;2022-08-19T02:32:43;44.74;42.22;54.98;;
59284;Laerm;45056;47.602;9.886;2022-08-19T02:35:13;44.16;42.09;53.23;;
59284;Laerm;45056;47.602;9.886;2022-08-19T02:37:42;44.30;42.03;56.75;;
59284;Laerm;45056;47.602;9.886;2022-08-19T02:40:31;43.60;42.09;54.56;;
59284;Laerm;45056;47.602;9.886;2022-08-19T02:43:00;43.50;42.16;45.91;;
59284;Laerm;45056;47.602;9.886;2022-08-19T02:45:32;44.38;42.03;55.14;;
59284;Laerm;45056;47.602;9.886;2022-08-19T02:48:01;44.55;42.29;59.36;;
59284;Laerm;45056;47.602;9.886;2022-08-19T02:50:29;45.04;42.22;54.52;;
59284;Laerm;45056;47.602;9.886;2022-08-19T02:52:58;43.99;42.41;51.45;;
59284;Laerm;45056;47.602;9.886;2022-08-19T02:55:27;44.49;42.41;52.85;;
59284;Laerm;45056;47.602;9.886;2022-08-19T02:57:56;44.43;42.29;54.52;;
59284;Laerm;45056;47.602;9.886;2022-08-19T03:00:24;45.64;42.71;53.68;;
59284;Laerm;45056;47.602;9.886;2022-08-19T03:02:53;44.00;42.03;57.36;;
59284;Laerm;45056;47.602;9.886;2022-08-19T03:05:21;44.88;42.71;56.91;;
59284;Laerm;45056;47.602;9.886;2022-08-19T03:07:49;49.00;42.93;65.44;;
59284;Laerm;45056;47.602;9.886;2022-08-19T03:10:17;44.68;42.71;54.66;;
59284;Laerm;45056;47.602;9.886;2022-08-19T03:12:45;45.86;42.93;59.08;;
59284;Laerm;45056;47.602;9.886;2022-08-19T03:15:15;46.88;43.19;58.14;;
59284;Laerm;45056;47.602;9.886;2022-08-19T03:17:43;44.82;42.88;57.43;;
59284;Laerm;45056;47.602;9.886;2022-08-19T03:20:11;46.08;43.14;58.38;;
59284;Laerm;45056;47.602;9.886;2022-08-19T03:22:39;45.72;43.09;53.51;;
59284;Laerm;45056;47.602;9.886;2022-08-19T03:25:08;46.57;42.93;62.41;;
59284;Laerm;45056;47.602;9.886;2022-08-19T03:27:36;46.02;43.14;55.27;;
59284;Laerm;45056;47.602;9.886;2022-08-19T03:30:05;47.44;43.14;62.62;;
59284;Laerm;45056;47.602;9.886;2022-08-19T03:32:35;44.98;42.88;56.66;;
59284;Laerm;45056;47.602;9.886;2022-08-19T03:35:03;44.93;42.82;56.45;;
59284;Laerm;45056;47.602;9.886;2022-08-19T03:37:32;46.67;43.14;57.94;;
59284;Laerm;45056;47.602;9.886;2022-08-19T03:40:02;46.43;43.34;55.60;;
59284;Laerm;45056;47.602;9.886;2022-08-19T03:42:30;47.35;43.24;59.67;;
59284;Laerm;45056;47.602;9.886;2022-08-19T03:44:58;48.32;43.86;59.30;;
59284;Laerm;45056;47.602;9.886;2022-08-19T03:47:26;47.55;44.03;57.79;;
59284;Laerm;45056;47.602;9.886;2022-08-19T03:49:56;58.46;44.62;94.27;;
59284;Laerm;45056;47.602;9.886;2022-08-19T03:52:24;51.06;45.91;57.38;;
59284;Laerm;45056;47.602;9.886;2022-08-19T03:54:52;50.25;44.35;78.83;;
59284;Laerm;45056;47.602;9.886;2022-08-19T03:57:20;47.59;45.04;55.23;;
59284;Laerm;45056;47.602;9.886;2022-08-19T03:59:48;48.18;45.39;58.60;;
59284;Laerm;45056;47.602;9.886;2022-08-19T04:02:16;50.06;45.54;62.14;;
59284;Laerm;45056;47.602;9.886;2022-08-19T04:04:44;53.03;45.11;65.06;;
59284;Laerm;45056;47.602;9.886;2022-08-19T04:07:14;47.92;45.42;55.46;;
59284;Laerm;45056;47.602;9.886;2022-08-19T04:09:48;50.38;45.07;65.33;;
59284;Laerm;45056;47.602;9.886;2022-08-19T04:12:18;48.65;45.60;56.74;;
59284;Laerm;45056;47.602;9.886;2022-08-19T04:14:47;48.25;45.45;53.99;;
59284;Laerm;45056;47.602;9.886;2022-08-19T04:17:15;51.37;45.97;66.06;;
59284;Laerm;45056;47.602;9.886;2022-08-19T04:19:43;49.58;45.83;58.13;;
59284;Laerm;45056;47.602;9.886;2022-08-19T04:22:11;49.51;46.23;58.42;;
59284;Laerm;45056;47.602;9.886;2022-08-19T04:24:41;49.10;45.69;59.54;;
59284;Laerm;45056;47.602;9.886;2022-08-19T04:27:09;49.33;45.94;58.93;;
59284;Laerm;45056;47.602;9.886;2022-08-19T04:29:37;49.34;45.80;60.15;;
59284;Laerm;45056;47.602;9.886;2022-08-19T04:32:06;49.32;45.83;56.13;;
59284;Laerm;45056;47.602;9.886;2022-08-19T04:34:34;51.85;46.45;61.76;;
59284;Laerm;45056;47.602;9.886;2022-08-19T04:37:06;50.24;45.07;56.26;;
59284;Laerm;45056;47.602;9.886;2022-08-19T04:39:38;50.91;45.72;63.44;;
59284;Laerm;45056;47.602;9.886;2022-08-19T04:42:25;50.04;45.11;62.29;;
59284;Laerm;45056;47.602;9.886;2022-08-19T04:45:10;50.15;45.51;59.80;;
59284;Laerm;45056;47.602;9.886;2022-08-19T04:47:43;51.40;45.51;65.24;;
59284;Laerm;45056;47.602;9.886;2022-08-19T04:50:11;49.85;44.73;58.86;;
59284;Laerm;45056;47.602;9.886;2022-08-19T04:52:40;49.88;45.04;56.28;;
59284;Laerm;45056;47.602;9.886;2022-08-19T04:55:09;49.63;44.39;60.43;;
59284;Laerm;45056;47.602;9.886;2022-08-19T04:57:39;49.31;44.97;58.74;;
59284;Laerm;45056;47.602;9.886;2022-08-19T05:00:10;49.33;44.58;57.44;;
59284;Laerm;45056;47.602;9.886;2022-08-19T05:02:39;49.34;45.48;56.47;;
59284;Laerm;45056;47.602;9.886;2022-08-19T05:05:08;50.83;45.63;59.99;;
59284;Laerm;45056;47.602;9.886;2022-08-19T05:07:36;49.51;45.23;60.42;;
59284;Laerm;45056;47.602;9.886;2022-08-19T05:10:06;50.06;44.51;57.76;;
59284;Laerm;45056;47.602;9.886;2022-08-19T05:12:35;49.45;45.01;58.71;;
59284;Laerm;45056;47.602;9.886;2022-08-19T05:15:07;50.76;45.30;60.09;;
59284;Laerm;45056;47.602;9.886;2022-08-19T05:17:36;48.50;44.39;58.55;;
59284;Laerm;45056;47.602;9.886;2022-08-19T05:20:06;48.48;44.73;55.49;;
59284;Laerm;45056;47.602;9.886;2022-08-19T05:22:52;49.28;45.04;59.08;;
59284;Laerm;45056;47.602;9.886;2022-08-19T05:25:22;58.92;45.11;94.10;;
59284;Laerm;45056;47.602;9.886;2022-08-19T05:27:51;49.48;45.51;55.98;;
59284;Laerm;45056;47.602;9.886;2022-08-19T05:30:21;49.37;45.57;55.89;;
59284;Laerm;45056;47.602;9.886;2022-08-19T05:32:49;50.25;45.63;59.44;;
59284;Laerm;45056;47.602;9.886;2022-08-19T05:35:17;51.04;45.11;60.83;;
59284;Laerm;45056;47.602;9.886;2022-08-19T05:37:45;50.50;45.48;62.12;;
59284;Laerm;45056;47.602;9.886;2022-08-19T05:40:13;49.79;45.42;66.57;;
59284;Laerm;45056;47.602;9.886;2022-08-19T05:42:41;49.48;44.54;56.89;;
59284;Laerm;45056;47.602;9.886;2022-08-19T05:45:10;48.99;45.27;54.66;;
59284;Laerm;45056;47.602;9.886;2022-08-19T05:47:39;50.35;44.90;60.35;;
59284;Laerm;45056;47.602;9.886;2022-08-19T05:50:08;49.21;44.94;57.78;;
59284;Laerm;45056;47.602;9.886;2022-08-19T05:52:37;49.17;44.73;56.66;;
59284;Laerm;45056;47.602;9.886;2022-08-19T05:55:06;48.18;44.69;54.17;;
59284;Laerm;45056;47.602;9.886;2022-08-19T05:57:35;48.32;44.62;54.75;;
59284;Laerm;45056;47.602;9.886;2022-08-19T06:00:06;47.98;44.54;54.26;;
59284;Laerm;45056;47.602;9.886;2022-08-19T06:02:36;49.17;44.97;58.69;;
59284;Laerm;45056;47.602;9.886;2022-08-19T06:05:08;49.73;45.60;56.97;;
59284;Laerm;45056;47.602;9.886;2022-08-19T06:07:37;48.62;44.62;55.02;;
59284;Laerm;45056;47.602;9.886;2022-08-19T06:10:09;50.26;45.36;59.16;;
59284;Laerm;45056;47.602;9.886;2022-08-19T06:12:39;49.64;45.72;57.70;;
59284;Laerm;45056;47.602;9.886;2022-08-19T06:15:11;48.73;45.11;56.55;;
59284;Laerm;45056;47.602;9.886;2022-08-19T06:17:42;48.26;44.97;55.09;;
59284;Laerm;45056;47.602;9.886;2022-08-19T06:20:14;48.42;44.51;55.70;;
59284;Laerm;45056;47.602;9.886;2022-08-19T06:22:48;48.47;44.27;55.63;;
59284;Laerm;45056;47.602;9.886;2022-08-19T06:25:18;49.11;44.34;57.09;;
59284;Laerm;45056;47.602;9.886;2022-08-19T06:27:46;49.11;44.69;65.91;;
59284;Laerm;45056;47.602;9.886;2022-08-19T06:30:14;49.43;45.48;55.20;;
59284;Laerm;45056;47.602;9.886;2022-08-19T06:32:42;49.10;45.34;54.33;;
59284;Laerm;45056;47.602;9.886;2022-08-19T06:35:12;48.96;45.07;55.19;;
59284;Laerm;45056;47.602;9.886;2022-08-19T06:37:41;48.42;45.23;54.21;;
59284;Laerm;45056;47.602;9.886;2022-08-19T06:40:11;48.37;44.80;54.99;;
59284;Laerm;45056;47.602;9.886;2022-08-19T06:42:39;48.51;44.47;54.30;;
59284;Laerm;45056;47.602;9.886;2022-08-19T06:45:08;48.54;44.54;56.58;;
59284;Laerm;45056;47.602;9.886;2022-08-19T06:47:36;50.64;45.11;59.66;;
59284;Laerm;45056;47.602;9.886;2022-08-19T06:50:06;49.21;45.57;56.34;;
59284;Laerm;45056;47.602;9.886;2022-08-19T06:52:35;49.73;45.63;56.14;;
59284;Laerm;45056;47.602;9.886;2022-08-19T06:55:04;49.90;45.72;59.72;;
59284;Laerm;45056;47.602;9.886;2022-08-19T06:57:33;50.44;46.73;57.47;;
59284;Laerm;45056;47.602;9.886;2022-08-19T07:00:04;50.09;46.07;58.72;;
59284;Laerm;45056;47.602;9.886;2022-08-19T07:02:33;50.54;45.83;56.60;;
59284;Laerm;45056;47.602;9.886;2022-08-19T07:05:06;49.49;45.80;56.32;;
59284;Laerm;45056;47.602;9.886;2022-08-19T07:07:36;49.56;45.60;56.76;;
59284;Laerm;45056;47.602;9.886;2022-08-19T07:10:05;49.81;45.94;58.21;;
59284;Laerm;45056;47.602;9.886;2022-08-19T07:12:33;50.12;46.23;57.02;;
59284;Laerm;45056;47.602;9.886;2022-08-19T07:15:02;50.21;46.23;58.38;;
59284;Laerm;45056;47.602;9.886;2022-08-19T07:17:31;49.24;45.20;57.14;;
59284;Laerm;45056;47.602;9.886;2022-08-19T07:20:01;49.40;45.30;57.67;;
59284;Laerm;45056;47.602;9.886;2022-08-19T07:22:29;49.03;44.76;56.42;;
59284;Laerm;45056;47.602;9.886;2022-08-19T07:25:00;49.12;45.27;55.03;;
59284;Laerm;45056;47.602;9.886;2022-08-19T07:27:30;50.35;45.04;57.12;;
59284;Laerm;45056;47.602;9.886;2022-08-19T07:29:58;52.21;48.66;59.57;;
59284;Laerm;45056;47.602;9.886;2022-08-19T07:32:26;52.57;49.29;58.23;;
59284;Laerm;45056;47.602;9.886;2022-08-19T07:34:55;51.39;48.31;58.48;;
59284;Laerm;45056;47.602;9.886;2022-08-19T07:37:24;50.51;47.14;57.02;;
59284;Laerm;45056;47.602;9.886;2022-08-19T07:39:53;49.97;45.91;56.80;;
59284;Laerm;45056;47.602;9.886;2022-08-19T07:42:22;48.59;45.01;57.45;;
59284;Laerm;45056;47.602;9.886;2022-08-19T07:44:50;49.64;45.17;59.27;;
59284;Laerm;45056;47.602;9.886;2022-08-19T07:47:19;48.85;45.20;56.20;;
59284;Laerm;45056;47.602;9.886;2022-08-19T07:49:47;48.85;45.17;56.43;;
59284;Laerm;45056;47.602;9.886;2022-08-19T07:52:15;48.77;45.25;58.38;;
59284;Laerm;45056;47.602;9.886;2022-08-19T07:54:43;48.82;45.40;55.51;;
59284;Laerm;45056;47.602;9.886;2022-08-19T07:57:11;49.15;45.45;55.40;;
59284;Laerm;45056;47.602;9.886;2022-08-19T07:59:41;49.30;45.23;54.51;;
59284;Laerm;45056;47.602;9.886;2022-08-19T08:02:09;49.03;45.11;54.46;;
59284;Laerm;45056;47.602;9.886;2022-08-19T08:04:38;49.24;44.76;58.83;;
59284;Laerm;45056;47.602;9.886;2022-08-19T08:07:25;48.95;44.51;59.22;;
59284;Laerm;45056;47.602;9.886;2022-08-19T08:10:11;48.53;44.83;55.45;;
59284;Laerm;45056;47.602;9.886;2022-08-19T08:12:40;48.62;44.35;58.34;;
59284;Laerm;45056;47.602;9.886;2022-08-19T08:15:15;48.48;44.87;53.98;;
59284;Laerm;45056;47.602;9.886;2022-08-19T08:17:45;48.78;44.39;65.02;;
59284;Laerm;45056;47.602;9.886;2022-08-19T08:20:14;48.04;44.03;59.57;;
59284;Laerm;45056;47.602;9.886;2022-08-19T08:22:43;47.30;44.31;53.02;;
59284;Laerm;45056;47.602;9.886;2022-08-19T08:25:30;48.18;44.51;52.39;;
59284;Laerm;45056;47.602;9.886;2022-08-19T08:27:58;48.60;44.51;54.31;;
59284;Laerm;45056;47.602;9.886;2022-08-19T08:30:30;48.79;44.43;61.12;;
59284;Laerm;45056;47.602;9.886;2022-08-19T08:32:59;47.53;44.15;53.70;;
59284;Laerm;45056;47.602;9.886;2022-08-19T08:35:27;50.36;44.31;67.63;;
59284;Laerm;45056;47.602;9.886;2022-08-19T08:37:56;48.53;44.47;58.91;;
59284;Laerm;45056;47.602;9.886;2022-08-19T08:40:29;47.59;44.15;53.86;;
59284;Laerm;45056;47.602;9.886;2022-08-19T08:43:20;48.88;44.69;56.56;;
59284;Laerm;45056;47.602;9.886;2022-08-19T08:46:01;48.67;44.97;53.55;;
59284;Laerm;45056;47.602;9.886;2022-08-19T08:48:47;48.65;45.01;56.11;;
59284;Laerm;45056;47.602;9.886;2022-08-19T08:51:24;48.78;44.83;59.92;;
59284;Laerm;45056;47.602;9.886;2022-08-19T08:53:55;48.39;44.76;55.51;;
59284;Laerm;45056;47.602;9.886;2022-08-19T08:56:23;47.99;44.47;55.80;;
59284;Laerm;45056;47.602;9.886;2022-08-19T08:59:02;48.69;44.65;54.57;;
59284;Laerm;45056;47.602;9.886;2022-08-19T09:01:35;48.27;44.51;56.19;;
59284;Laerm;45056;47.602;9.886;2022-08-19T09:04:05;48.02;44.58;52.68;;
59284;Laerm;45056;47.602;9.886;2022-08-19T09:06:44;50.12;45.04;61.25;;
59284;Laerm;45056;47.602;9.886;2022-08-19T09:09:24;49.07;44.94;57.82;;
59284;Laerm;45056;47.602;9.886;2022-08-19T09:12:10;49.51;44.73;60.36;;
59284;Laerm;45056;47.602;9.886;2022-08-19T09:14:52;48.39;45.27;53.19;;
59284;Laerm;45056;47.602;9.886;2022-08-19T09:17:29;47.60;44.35;52.02;;
59284;Laerm;45056;47.602;9.886;2022-08-19T09:20:05;47.73;44.19;52.48;;
59284;Laerm;45056;47.602;9.886;2022-08-19T09:22:37;47.66;44.19;54.68;;
59284;Laerm;45056;47.602;9.886;2022-08-19T09:25:09;48.81;44.94;56.61;;
59284;Laerm;45056;47.602;9.886;2022-08-19T09:27:41;47.71;44.35;56.53;;
59284;Laerm;45056;47.602;9.886;2022-08-19T09:30:16;48.01;44.43;54.61;;
59284;Laerm;45056;47.602;9.886;2022-08-19T09:32:46;47.31;44.47;52.53;;
59284;Laerm;45056;47.602;9.886;2022-08-19T09:35:15;47.87;44.39;54.50;;
59284;Laerm;45056;47.602;9.886;2022-08-19T09:37:43;48.50;44.39;54.27;;
59284;Laerm;45056;47.602;9.886;2022-08-19T09:40:12;49.52;44.35;62.75;;
59284;Laerm;45056;47.602;9.886;2022-08-19T09:42:40;47.82;44.11;57.95;;
59284;Laerm;45056;47.602;9.886;2022-08-19T09:45:10;49.19;44.51;56.78;;
59284;Laerm;45056;47.602;9.886;2022-08-19T09:47:38;48.98;44.90;58.07;;
59284;Laerm;45056;47.602;9.886;2022-08-19T09:50:12;49.02;44.58;58.24;;
59284;Laerm;45056;47.602;9.886;2022-08-19T09:52:40;49.19;44.39;56.80;;
59284;Laerm;45056;47.602;9.886;2022-08-19T09:55:10;49.47;45.23;56.38;;
59284;Laerm;45056;47.602;9.886;2022-08-19T09:57:39;49.56;44.94;57.20;;
59284;Laerm;45056;47.602;9.886;2022-08-19T10:00:09;50.36;45.30;57.84;;
59284;Laerm;45056;47.602;9.886;2022-08-19T10:02:37;50.47;45.60;57.63;;
59284;Laerm;45056;47.602;9.886;2022-08-19T10:05:08;55.41;48.69;62.30;;
59284;Laerm;45056;47.602;9.886;2022-08-19T10:07:53;50.85;45.99;60.82;;
59284;Laerm;45056;47.602;9.886;2022-08-19T10:10:21;50.48;46.23;57.89;;
59284;Laerm;45056;47.602;9.886;2022-08-19T10:12:51;50.95;45.48;59.79;;
59284;Laerm;45056;47.602;9.886;2022-08-19T10:15:22;50.38;46.18;56.13;;
59284;Laerm;45056;47.602;9.886;2022-08-19T10:17:50;50.77;46.28;56.56;;
59284;Laerm;45056;47.602;9.886;2022-08-19T10:20:20;50.67;46.43;56.76;;
59284;Laerm;45056;47.602;9.886;2022-08-19T10:22:48;51.01;45.72;56.74;;
59284;Laerm;45056;47.602;9.886;2022-08-19T10:25:16;50.66;46.13;58.62;;
59284;Laerm;45056;47.602;9.886;2022-08-19T10:27:44;50.84;46.05;55.63;;
59284;Laerm;45056;47.602;9.886;2022-08-19T10:30:13;50.95;46.20;56.03;;
59284;Laerm;45056;47.602;9.886;2022-08-19T10:32:41;50.88;46.97;58.07;;
59284;Laerm;45056;47.602;9.886;2022-08-19T10:35:09;50.46;45.42;55.33;;
59284;Laerm;45056;47.602;9.886;2022-08-19T10:37:39;50.90;45.66;58.19;;
59284;Laerm;45056;47.602;9.886;2022-08-19T10:40:09;50.96;46.20;57.74;;
59284;Laerm;45056;47.602;9.886;2022-08-19T10:42:38;50.30;46.25;58.66;;
59284;Laerm;45056;47.602;9.886;2022-08-19T10:45:07;51.35;45.01;57.24;;
59284;Laerm;45056;47.602;9.886;2022-08-19T10:47:36;50.90;44.97;56.97;;
59284;Laerm;45056;47.602;9.886;2022-08-19T10:50:06;51.16;44.54;59.34;;
59284;Laerm;45056;47.602;9.886;2022-08-19T10:52:53;50.66;45.01;59.13;;
59284;Laerm;45056;47.602;9.886;2022-08-19T10:55:23;51.43;45.11;61.07;;
59284;Laerm;45056;47.602;9.886;2022-08-19T10:58:12;50.40;43.90;56.96;;
59284;Laerm;45056;47.602;9.886;2022-08-19T11:00:41;50.96;45.36;56.70;;
59284;Laerm;45056;47.602;9.886;2022-08-19T11:03:11;51.55;45.17;57.97;;
59284;Laerm;45056;47.602;9.886;2022-08-19T11:05:39;51.03;45.69;57.38;;
59284;Laerm;45056;47.602;9.886;2022-08-19T11:08:09;51.05;45.27;63.61;;
59284;Laerm;45056;47.602;9.886;2022-08-19T11:10:41;50.57;45.57;56.53;;
59284;Laerm;45056;47.602;9.886;2022-08-19T11:13:10;51.38;44.73;57.87;;
59284;Laerm;45056;47.602;9.886;2022-08-19T11:15:38;51.34;45.36;58.71;;
59284;Laerm;45056;47.602;9.886;2022-08-19T11:18:07;51.59;46.20;57.09;;
59284;Laerm;45056;47.602;9.886;2022-08-19T11:20:35;52.37;47.32;58.55;;
59284;Laerm;45056;47.602;9.886;2022-08-19T11:23:03;52.25;47.76;60.45;;
59284;Laerm;45056;47.602;9.886;2022-08-19T11:25:33;54.20;49.38;61.66;;
59284;Laerm;45056;47.602;9.886;2022-08-19T11:28:02;54.42;50.57;59.53;;
59284;Laerm;45056;47.602;9.886;2022-08-19T11:30:31;55.98;52.33;62.77;;
59284;Laerm;45056;47.602;9.886;2022-08-19T11:32:59;54.50;49.97;62.34;;
59284;Laerm;45056;47.602;9.886;2022-08-19T11:35:29;57.24;51.03;62.79;;
59284;Laerm;45056;47.602;9.886;2022-08-19T11:37:57;59.56;56.62;63.07;;
59284;Laerm;45056;47.602;9.886;2022-08-19T11:40:33;57.60;55.12;62.36;;
59284;Laerm;45056;47.602;9.886;2022-08-19T11:43:01;57.27;53.93;63.14;;
59284;Laerm;45056;47.602;9.886;2022-08-19T11:45:30;55.12;51.47;61.65;;
59284;Laerm;45056;47.602;9.886;2022-08-19T11:47:58;54.94;51.37;62.63;;
59284;Laerm;45056;47.602;9.886;2022-08-19T11:50:26;54.66;51.08;61.35;;
59284;Laerm;45056;47.602;9.886;2022-08-19T11:52:56;55.44;51.13;62.55;;
59284;Laerm;45056;47.602;9.886;2022-08-19T11:55:24;55.19;48.18;65.27;;
59284;Laerm;45056;47.602;9.886;2022-08-19T11:57:54;53.22;48.78;59.00;;
59284;Laerm;45056;47.602;9.886;2022-08-19T12:00:22;54.04;49.39;61.80;;
59284;Laerm;45056;47.602;9.886;2022-08-19T12:02:50;53.88;49.33;60.28;;
59284;Laerm;45056;47.602;9.886;2022-08-19T12:05:18;53.54;47.74;60.05;;
59284;Laerm;45056;47.602;9.886;2022-08-19T12:07:46;52.98;47.32;60.23;;
59284;Laerm;45056;47.602;9.886;2022-08-19T12:10:14;53.18;47.96;61.86;;
59284;Laerm;45056;47.602;9.886;2022-08-19T12:12:42;53.67;47.19;61.59;;
59284;Laerm;45056;47.602;9.886;2022-08-19T12:15:14;52.80;47.90;59.44;;
59284;Laerm;45056;47.602;9.886;2022-08-19T12:17:43;54.08;49.66;59.56;;
59284;Laerm;45056;47.602;9.886;2022-08-19T12:20:13;56.63;52.54;61.02;;
59284;Laerm;45056;47.602;9.886;2022-08-19T12:22:43;56.52;52.73;62.14;;
59284;Laerm;45056;47.602;9.886;2022-08-19T12:25:11;55.76;51.60;59.77;;
59284;Laerm;45056;47.602;9.886;2022-08-19T12:27:42;54.90;52.06;60.40;;
59284;Laerm;45056;47.602;9.886;2022-08-19T12:30:14;54.89;51.83;59.83;;
59284;Laerm;45056;47.602;9.886;2022-08-19T12:32:42;54.73;51.26;59.87;;
59284;Laerm;45056;47.602;9.886;2022-08-19T12:35:10;54.40;50.88;60.32;;
59284;Laerm;45056;47.602;9.886;2022-08-19T12:37:39;53.45;50.09;59.90;;
59284;Laerm;45056;47.602;9.886;2022-08-19T12:40:12;54.36;49.87;61.09;;
59284;Laerm;45056;47.602;9.886;2022-08-19T12:42:41;54.22;50.13;59.47;;
59284;Laerm;45056;47.602;9.886;2022-08-19T12:45:11;52.53;48.69;60.96;;
59284;Laerm;45056;47.602;9.886;2022-08-19T12:47:41;51.78;47.44;60.34;;
59284;Laerm;45056;47.602;9.886;2022-08-19T12:50:09;51.20;47.42;56.44;;
59284;Laerm;45056;47.602;9.886;2022-08-19T12:52:38;52.60;46.87;67.73;;
59284;Laerm;45056;47.602;9.886;2022-08-19T12:55:08;52.37;46.59;58.01;;
59284;Laerm;45056;47.602;9.886;2022-08-19T12:57:37;53.77;47.61;58.88;;
59284;Laerm;45056;47.602;9.886;2022-08-19T13:00:11;53.94;47.74;59.66;;
59284;Laerm;45056;47.602;9.886;2022-08-19T13:02:44;54.03;48.15;58.73;;
59284;Laerm;45056;47.602;9.886;2022-08-19T13:05:17;65.77;48.23;86.30;;
59284;Laerm;45056;47.602;9.886;2022-08-19T13:07:46;53.56;47.95;60.03;;
59284;Laerm;45056;47.602;9.886;2022-08-19T13:10:18;54.78;48.63;64.77;;
59284;Laerm;45056;47.602;9.886;2022-08-19T13:12:51;54.43;48.70;60.01;;
59284;Laerm;45056;47.602;9.886;2022-08-19T13:15:22;54.15;49.28;58.30;;
59284;Laerm;45056;47.602;9.886;2022-08-19T13:17:53;55.41;50.82;60.15;;
59284;Laerm;45056;47.602;9.886;2022-08-19T13:20:23;54.47;49.79;59.08;;
59284;Laerm;45056;47.602;9.886;2022-08-19T13:22:53;55.61;50.15;60.25;;
59284;Laerm;45056;47.602;9.886;2022-08-19T13:25:21;56.36;51.22;61.05;;
59284;Laerm;45056;47.602;9.886;2022-08-19T13:27:50;55.46;50.12;60.27;;
59284;Laerm;45056;47.602;9.886;2022-08-19T13:30:20;55.85;50.63;60.76;;
59284;Laerm;45056;47.602;9.886;2022-08-19T13:33:09;54.94;48.90;60.75;;
59284;Laerm;45056;47.602;9.886;2022-08-19T13:35:46;54.37;48.10;61.12;;
59284;Laerm;45056;47.602;9.886;2022-08-19T13:38:20;54.68;47.93;59.59;;
59284;Laerm;45056;47.602;9.886;2022-08-19T13:40:54;54.37;48.10;58.69;;
59284;Laerm;45056;47.602;9.886;2022-08-19T13:43:26;54.30;47.77;59.13;;
59284;Laerm;45056;47.602;9.886;2022-08-19T13:45:55;54.50;47.06;58.01;;
59284;Laerm;45056;47.602;9.886;2022-08-19T13:48:27;54.60;46.89;59.32;;
59284;Laerm;45056;47.602;9.886;2022-08-19T13:50:55;55.02;47.79;59.68;;
59284;Laerm;45056;47.602;9.886;2022-08-19T13:53:24;55.17;46.95;59.57;;
59284;Laerm;45056;47.602;9.886;2022-08-19T13:55:52;55.70;49.47;59.78;;
59284;Laerm;45056;47.602;9.886;2022-08-19T13:58:20;55.57;48.57;60.59;;
59284;Laerm;45056;47.602;9.886;2022-08-19T14:00:49;55.93;49.66;64.70;;